Address 0xb36cdd7c974c48b5c7797d4f9a74bd80773977ff 2

 
Ad
Ad
Txn Hash Method
Block
From
To
Value [Txn Fee]
0x37bd582fdb6c7d710bceaea017819952a360be78ef1f708bd9ace3fafd9ae244Convert Multiple203659352021-10-19 2:53:1625 mins ago0xb36cdd7c974c48b5c7797d4f9a74bd80773977ffOUT 0x0e43245f7af3cfb1d4838e6704f27d09a8b4b0720 MATIC0.543925914
0x83ea6183a5b35f4f657c80c23984add818802faf9d10d68ee79267f72177310eConvert Multiple203652382021-10-19 2:20:2058 mins ago0xb36cdd7c974c48b5c7797d4f9a74bd80773977ffOUT 0x0e43245f7af3cfb1d4838e6704f27d09a8b4b0720 MATIC0.32981739
0x5c3d58ec1354e371fa63ca6525fc4a3e6c31edf68a24d3d7614c7757ace2390dConvert Multiple203591902021-10-18 22:17:445 hrs ago0xb36cdd7c974c48b5c7797d4f9a74bd80773977ffOUT 0x0e43245f7af3cfb1d4838e6704f27d09a8b4b0720 MATIC1.9902554
0xcf6f22b5e6af7731ca5e2338a418bed3bb184006288e4013ddf3ba7d0b9c0007Convert Multiple203581462021-10-18 21:22:405 hrs 55 mins ago0xb36cdd7c974c48b5c7797d4f9a74bd80773977ffOUT 0x0e43245f7af3cfb1d4838e6704f27d09a8b4b0720 MATIC2.0835886
0xe8d68e625d065349e68dbd3260aa9eece1b22ebbb676b29787f48830e5749db2Convert Multiple203576182021-10-18 21:00:126 hrs 18 mins ago0xb36cdd7c974c48b5c7797d4f9a74bd80773977ffOUT 0x0e43245f7af3cfb1d4838e6704f27d09a8b4b0720 MATIC1.9624814
0x7c265ddefdf3a991fd6ef5ea6304d4af2cbdad9a36ee9070dd8329cd6c286cbaConvert Multiple203511832021-10-18 16:02:0311 hrs 16 mins ago0xb36cdd7c974c48b5c7797d4f9a74bd80773977ffOUT 0x0e43245f7af3cfb1d4838e6704f27d09a8b4b0720 MATIC0.354357045
0xaf209d826ec20464a299b2b61e418074346e91ef1cc8aeaad25528668b022334Convert Multiple203502332021-10-18 15:16:3512 hrs 1 min ago0xb36cdd7c974c48b5c7797d4f9a74bd80773977ffOUT 0x0e43245f7af3cfb1d4838e6704f27d09a8b4b0720 MATIC0.327780985
0xebd36d4b4fd3ead85b31b9240b2d0e8cfd6f4ba4652e4c5dfd236fc291e6ffc1Convert Multiple203409952021-10-18 8:40:1818 hrs 38 mins ago0xb36cdd7c974c48b5c7797d4f9a74bd80773977ffOUT 0x0e43245f7af3cfb1d4838e6704f27d09a8b4b0720 MATIC0.36599178
0x4f4009bec71c2e73796a25272f5468d46ce858721a483391c9210298fc066db2Convert Multiple203401442021-10-18 8:04:3619 hrs 13 mins ago0xb36cdd7c974c48b5c7797d4f9a74bd80773977ffOUT 0x0e43245f7af3cfb1d4838e6704f27d09a8b4b0720 MATIC0.370590516
0x0b2342a9f91db48511cd8f22dcab5f449aca8996e2855672214cff0dad5d654dConvert Multiple203309072021-10-18 1:46:551 day 1 hr ago0xb36cdd7c974c48b5c7797d4f9a74bd80773977ffOUT 0x0e43245f7af3cfb1d4838e6704f27d09a8b4b0720 MATIC2.0259356
0xe05cbbfd2030a183aeaca9cfbf83f8578362c344be80518df730f8949fef2a4aConvert Multiple203308952021-10-18 1:46:311 day 1 hr ago0xb36cdd7c974c48b5c7797d4f9a74bd80773977ffOUT 0x0e43245f7af3cfb1d4838e6704f27d09a8b4b0720 MATIC2.1209148
0x18a17421d61ce8a6d4472430bd2d0e0f5321707ec55f964a6d2bdf8e1b12a006Convert Multiple203308832021-10-18 1:46:071 day 1 hr ago0xb36cdd7c974c48b5c7797d4f9a74bd80773977ffOUT 0x0e43245f7af3cfb1d4838e6704f27d09a8b4b0720 MATIC2.0305202
0xb9f03beca7a18f4272beb1cdf8c5f666372e5bd5cf1cd1033a9b13d3f22a6d64Convert Multiple203308712021-10-18 1:45:391 day 1 hr ago0xb36cdd7c974c48b5c7797d4f9a74bd80773977ffOUT 0x0e43245f7af3cfb1d4838e6704f27d09a8b4b0720 MATIC0.325332805
0xbdb9bc98dabe99acd1e50ab2b7028720aca93dd4ccaebbfa314440fd74cc0db8Convert Multiple203228252021-10-17 20:11:051 day 7 hrs ago0xb36cdd7c974c48b5c7797d4f9a74bd80773977ffOUT 0x0e43245f7af3cfb1d4838e6704f27d09a8b4b0720 MATIC0.152385092
0x06d6fed535f42186c13fc4a138820980e6f276f7afc7a120d12b62af2ac8ca41Convert Multiple203227962021-10-17 20:10:031 day 7 hrs ago0xb36cdd7c974c48b5c7797d4f9a74bd80773977ffOUT 0x0e43245f7af3cfb1d4838e6704f27d09a8b4b0720 MATIC0.371357105
0xd1874eb44a55ab3106495366ee244163cd387ed08bbff060d0d6039982eef6d5Convert Multiple203227802021-10-17 20:09:311 day 7 hrs ago0xb36cdd7c974c48b5c7797d4f9a74bd80773977ffOUT 0x0e43245f7af3cfb1d4838e6704f27d09a8b4b0720 MATIC0.427881904
0xbbfc286c3c503299e7e44237e430dd8be6c109327b9007ce3b3c7005ee4c6326Convert Multiple203140692021-10-17 14:28:061 day 12 hrs ago0xb36cdd7c974c48b5c7797d4f9a74bd80773977ffOUT 0x0e43245f7af3cfb1d4838e6704f27d09a8b4b0720 MATIC0.356107395
0xe48708e2773aa6d78283d706803bb7a5243c703f156d73fb2f62ed53275f2630Convert Multiple203140532021-10-17 14:27:021 day 12 hrs ago0xb36cdd7c974c48b5c7797d4f9a74bd80773977ffOUT 0x0e43245f7af3cfb1d4838e6704f27d09a8b4b0720 MATIC0.36692768
0x199b45edeca127dd62981bcfec34ff0c1054072f27c153ed0d40d2ad72c1290bConvert Multiple203140442021-10-17 14:26:281 day 12 hrs ago0xb36cdd7c974c48b5c7797d4f9a74bd80773977ffOUT 0x0e43245f7af3cfb1d4838e6704f27d09a8b4b0720 MATIC0.385285952
0x6bdf4424a53e617a031301048edb6650e567893606ff17baabc3c3664e3bd1afConvert Multiple203135932021-10-17 14:02:261 day 13 hrs ago0xb36cdd7c974c48b5c7797d4f9a74bd80773977ffOUT 0x0e43245f7af3cfb1d4838e6704f27d09a8b4b0720 MATIC0.32935784
0xdec6a33a2125404ad863176e56905c54efb4c85700c9e27781ea579dafb83aabConvert Multiple203055532021-10-17 8:05:411 day 19 hrs ago0xb36cdd7c974c48b5c7797d4f9a74bd80773977ffOUT 0x0e43245f7af3cfb1d4838e6704f27d09a8b4b0720 MATIC0.184848986
0xd29f68e9b8ba1c90acbbbd86cfc261079a12dfa508234970d288c83abd253c0bConvert Multiple203055252021-10-17 8:04:411 day 19 hrs ago0xb36cdd7c974c48b5c7797d4f9a74bd80773977ffOUT 0x0e43245f7af3cfb1d4838e6704f27d09a8b4b0720 MATIC0.419111784
0x85e91dc5c7225ee8c117bf9f9d96b93eb8e832a8c9709b437c768186a491fb14Convert Multiple203050372021-10-17 7:45:491 day 19 hrs ago0xb36cdd7c974c48b5c7797d4f9a74bd80773977ffOUT 0x0e43245f7af3cfb1d4838e6704f27d09a8b4b0720 MATIC0.37124927
0x491cb5b74dce4e420948b96fd436a38a73d6b4a267f1a7e16858736cc29b6cbbConvert Multiple203050052021-10-17 7:44:411 day 19 hrs ago0xb36cdd7c974c48b5c7797d4f9a74bd80773977ffOUT 0x0e43245f7af3cfb1d4838e6704f27d09a8b4b0720 MATIC0.363455645
0x6d42ab77f1106c8dfadd4ae193c3279401ffeb2fe431ad5343e15b5b3fa4832dConvert Multiple203048222021-10-17 7:38:231 day 19 hrs ago0xb36cdd7c974c48b5c7797d4f9a74bd80773977ffOUT 0x0e43245f7af3cfb1d4838e6704f27d09a8b4b0720 MATIC0.341931975
[ Download CSV Export 
Parent Txn Hash Block From To Value
Loading

Contract Name:
0 MATIC

Compiler Version
0

Optimization Enabled:
0 MATIC

Other Settings:
-NA-
Block Transaction Gas Used Reward
Age Block Fee Address BC Fee Address Voting Power Jailed Incoming
Block Uncle Number Difficulty Gas Used Reward
Loading
Loading
Make sure to use the "Vote Down" button for any spammy posts, and the "Vote Up" for interesting conversations.